sensor_id;sensor_type;location;lat;lon;timestamp;P1;durP1;ratioP1;P2;durP2;ratioP2
33553;SDS011;19885;42.208;24.952;2023-05-02T00:38:28;0.20;;;0.20;;
33553;SDS011;19885;42.208;24.952;2023-05-02T00:40:53;21.70;;;20.40;;
33553;SDS011;19885;42.208;24.952;2023-05-02T00:43:18;23.48;;;22.00;;
33553;SDS011;19885;42.208;24.952;2023-05-02T00:48:11;40.22;;;34.75;;
33553;SDS011;19885;42.208;24.952;2023-05-02T00:50:37;34.20;;;30.93;;
33553;SDS011;19885;42.208;24.952;2023-05-02T00:53:08;32.83;;;29.73;;
33553;SDS011;19885;42.208;24.952;2023-05-02T00:55:35;32.73;;;29.53;;
33553;SDS011;19885;42.208;24.952;2023-05-02T00:58:01;36.10;;;32.73;;
33553;SDS011;19885;42.208;24.952;2023-05-02T01:00:48;26.47;;;24.50;;
33553;SDS011;19885;42.208;24.952;2023-05-02T01:14:05;25.08;;;23.35;;
33553;SDS011;19885;42.208;24.952;2023-05-02T01:19:04;18.02;;;16.90;;
33553;SDS011;19885;42.208;24.952;2023-05-02T03:57:56;34.28;;;31.60;;
33553;SDS011;19885;42.208;24.952;2023-05-02T04:31:54;37.63;;;33.78;;
33553;SDS011;19885;42.208;24.952;2023-05-02T04:34:20;40.93;;;36.60;;
33553;SDS011;19885;42.208;24.952;2023-05-02T04:36:45;33.83;;;30.97;;
33553;SDS011;19885;42.208;24.952;2023-05-02T04:41:37;33.07;;;30.47;;
33553;SDS011;19885;42.208;24.952;2023-05-02T05:18:04;24.75;;;22.98;;
33553;SDS011;19885;42.208;24.952;2023-05-02T06:08:58;35.90;;;32.73;;
33553;SDS011;19885;42.208;24.952;2023-05-02T06:16:18;31.20;;;28.75;;
33553;SDS011;19885;42.208;24.952;2023-05-02T06:28:27;45.05;;;40.17;;
33553;SDS011;19885;42.208;24.952;2023-05-02T06:33:22;29.27;;;27.02;;
33553;SDS011;19885;42.208;24.952;2023-05-02T07:10:48;47.77;;;43.00;;
33553;SDS011;19885;42.208;24.952;2023-05-02T07:39:57;39.92;;;36.35;;
33553;SDS011;19885;42.208;24.952;2023-05-02T08:28:32;53.73;;;48.43;;
33553;SDS011;19885;42.208;24.952;2023-05-02T08:33:23;40.92;;;37.08;;
33553;SDS011;19885;42.208;24.952;2023-05-02T08:38:13;52.60;;;47.03;;
33553;SDS011;19885;42.208;24.952;2023-05-02T08:43:04;65.10;;;53.13;;
33553;SDS011;19885;42.208;24.952;2023-05-02T08:48:06;69.57;;;57.75;;
33553;SDS011;19885;42.208;24.952;2023-05-02T08:53:03;73.40;;;62.08;;
33553;SDS011;19885;42.208;24.952;2023-05-02T08:55:30;70.73;;;63.10;;
33553;SDS011;19885;42.208;24.952;2023-05-02T08:57:58;65.28;;;56.53;;
33553;SDS011;19885;42.208;24.952;2023-05-02T09:02:55;76.20;;;61.05;;
33553;SDS011;19885;42.208;24.952;2023-05-02T09:08:04;1.58;;;1.30;;
33553;SDS011;19885;42.208;24.952;2023-05-02T09:10:29;6.13;;;1.67;;
33553;SDS011;19885;42.208;24.952;2023-05-02T09:15:44;1.52;;;1.35;;
33553;SDS011;19885;42.208;24.952;2023-05-02T09:18:22;3.30;;;1.37;;
33553;SDS011;19885;42.208;24.952;2023-05-02T09:20:49;2.00;;;1.40;;
33553;SDS011;19885;42.208;24.952;2023-05-02T09:23:15;2.37;;;1.33;;
33553;SDS011;19885;42.208;24.952;2023-05-02T09:25:40;3.00;;;1.37;;
33553;SDS011;19885;42.208;24.952;2023-05-02T09:28:06;1.73;;;1.10;;
33553;SDS011;19885;42.208;24.952;2023-05-02T09:30:31;1.67;;;1.37;;
33553;SDS011;19885;42.208;24.952;2023-05-02T09:32:57;7.33;;;1.50;;
33553;SDS011;19885;42.208;24.952;2023-05-02T09:35:23;2.00;;;1.23;;
33553;SDS011;19885;42.208;24.952;2023-05-02T09:37:55;3.73;;;1.53;;
33553;SDS011;19885;42.208;24.952;2023-05-02T09:40:21;2.70;;;1.03;;
33553;SDS011;19885;42.208;24.952;2023-05-02T09:42:48;2.20;;;1.00;;
33553;SDS011;19885;42.208;24.952;2023-05-02T09:45:23;5.97;;;1.47;;
33553;SDS011;19885;42.208;24.952;2023-05-02T09:47:50;2.40;;;1.53;;
33553;SDS011;19885;42.208;24.952;2023-05-02T09:50:32;3.67;;;1.20;;
33553;SDS011;19885;42.208;24.952;2023-05-02T09:53:05;6.90;;;1.67;;
33553;SDS011;19885;42.208;24.952;2023-05-02T09:57:58;60.38;;;49.92;;
33553;SDS011;19885;42.208;24.952;2023-05-02T10:00:41;58.93;;;50.50;;
33553;SDS011;19885;42.208;24.952;2023-05-02T10:03:07;54.90;;;48.90;;
33553;SDS011;19885;42.208;24.952;2023-05-02T10:05:37;57.70;;;51.40;;
33553;SDS011;19885;42.208;24.952;2023-05-02T10:08:07;56.08;;;49.90;;
33553;SDS011;19885;42.208;24.952;2023-05-02T10:10:38;61.77;;;51.67;;
33553;SDS011;19885;42.208;24.952;2023-05-02T10:13:05;46.67;;;41.63;;
33553;SDS011;19885;42.208;24.952;2023-05-02T10:15:33;56.22;;;48.88;;
33553;SDS011;19885;42.208;24.952;2023-05-02T10:18:02;51.50;;;46.35;;
33553;SDS011;19885;42.208;24.952;2023-05-02T10:20:37;53.30;;;47.90;;
33553;SDS011;19885;42.208;24.952;2023-05-02T10:23:28;64.80;;;52.13;;
33553;SDS011;19885;42.208;24.952;2023-05-02T10:25:54;68.80;;;57.03;;
33553;SDS011;19885;42.208;24.952;2023-05-02T10:30:47;4.30;;;1.50;;
33553;SDS011;19885;42.208;24.952;2023-05-02T10:33:15;1.15;;;0.95;;
33553;SDS011;19885;42.208;24.952;2023-05-02T10:35:42;45.13;;;41.07;;
33553;SDS011;19885;42.208;24.952;2023-05-02T10:40:37;1.75;;;1.15;;
33553;SDS011;19885;42.208;24.952;2023-05-02T10:43:04;2.05;;;1.08;;
33553;SDS011;19885;42.208;24.952;2023-05-02T10:45:31;4.90;;;2.28;;
33553;SDS011;19885;42.208;24.952;2023-05-02T10:56:06;3.20;;;1.10;;
33553;SDS011;19885;42.208;24.952;2023-05-02T10:58:31;4.22;;;1.25;;
33553;SDS011;19885;42.208;24.952;2023-05-02T11:01:21;3.20;;;1.25;;
33553;SDS011;19885;42.208;24.952;2023-05-02T11:04:07;2.15;;;0.90;;
33553;SDS011;19885;42.208;24.952;2023-05-02T11:06:35;5.05;;;1.17;;
33553;SDS011;19885;42.208;24.952;2023-05-02T11:11:49;0.95;;;0.85;;
33553;SDS011;19885;42.208;24.952;2023-05-02T11:15:01;1.48;;;1.13;;
33553;SDS011;19885;42.208;24.952;2023-05-02T11:17:08;3.22;;;1.25;;
33553;SDS011;19885;42.208;24.952;2023-05-02T12:09:33;51.23;;;47.07;;
33553;SDS011;19885;42.208;24.952;2023-05-02T12:19:19;1.75;;;1.00;;
33553;SDS011;19885;42.208;24.952;2023-05-02T12:21:45;1.85;;;0.90;;
33553;SDS011;19885;42.208;24.952;2023-05-02T12:24:12;3.20;;;0.55;;
33553;SDS011;19885;42.208;24.952;2023-05-02T12:26:39;1.80;;;1.20;;
33553;SDS011;19885;42.208;24.952;2023-05-02T12:29:04;7.47;;;1.73;;
33553;SDS011;19885;42.208;24.952;2023-05-02T12:31:33;74.50;;;63.03;;
33553;SDS011;19885;42.208;24.952;2023-05-02T12:38:53;2.00;;;0.88;;
33553;SDS011;19885;42.208;24.952;2023-05-02T12:44:15;3.28;;;0.98;;
33553;SDS011;19885;42.208;24.952;2023-05-02T12:46:59;3.58;;;1.25;;
33553;SDS011;19885;42.208;24.952;2023-05-02T12:49:25;4.05;;;1.08;;
33553;SDS011;19885;42.208;24.952;2023-05-02T12:51:53;1.08;;;0.80;;
33553;SDS011;19885;42.208;24.952;2023-05-02T12:54:22;0.70;;;0.70;;
33553;SDS011;19885;42.208;24.952;2023-05-02T12:56:48;2.17;;;1.05;;
33553;SDS011;19885;42.208;24.952;2023-05-02T12:59:28;2.13;;;0.90;;
33553;SDS011;19885;42.208;24.952;2023-05-02T13:01:57;2.05;;;1.00;;
33553;SDS011;19885;42.208;24.952;2023-05-02T13:04:33;2.15;;;1.05;;
33553;SDS011;19885;42.208;24.952;2023-05-02T13:07:03;0.65;;;0.65;;
33553;SDS011;19885;42.208;24.952;2023-05-02T13:09:28;30.53;;;27.60;;
33553;SDS011;19885;42.208;24.952;2023-05-02T13:11:54;1.15;;;0.77;;
33553;SDS011;19885;42.208;24.952;2023-05-02T13:38:35;3.07;;;1.17;;
33553;SDS011;19885;42.208;24.952;2023-05-02T13:55:32;1.37;;;0.90;;
33553;SDS011;19885;42.208;24.952;2023-05-02T13:57:58;3.03;;;1.05;;
33553;SDS011;19885;42.208;24.952;2023-05-02T14:00:23;3.47;;;1.10;;
33553;SDS011;19885;42.208;24.952;2023-05-02T14:02:49;1.13;;;0.93;;
33553;SDS011;19885;42.208;24.952;2023-05-02T14:05:14;5.32;;;1.70;;
33553;SDS011;19885;42.208;24.952;2023-05-02T14:07:40;5.80;;;1.05;;
33553;SDS011;19885;42.208;24.952;2023-05-02T14:10:05;6.45;;;1.23;;
33553;SDS011;19885;42.208;24.952;2023-05-02T14:12:31;1.88;;;1.00;;
33553;SDS011;19885;42.208;24.952;2023-05-02T14:14:57;2.15;;;1.30;;
33553;SDS011;19885;42.208;24.952;2023-05-02T14:17:22;1.60;;;0.80;;
33553;SDS011;19885;42.208;24.952;2023-05-02T14:19:51;2.30;;;1.40;;
33553;SDS011;19885;42.208;24.952;2023-05-02T14:22:16;3.28;;;1.17;;
33553;SDS011;19885;42.208;24.952;2023-05-02T14:24:42;3.65;;;1.35;;
33553;SDS011;19885;42.208;24.952;2023-05-02T14:27:07;2.03;;;1.52;;
33553;SDS011;19885;42.208;24.952;2023-05-02T14:29:41;5.45;;;0.95;;
33553;SDS011;19885;42.208;24.952;2023-05-02T14:32:08;1.20;;;0.95;;
33553;SDS011;19885;42.208;24.952;2023-05-02T14:34:33;1.17;;;1.02;;
33553;SDS011;19885;42.208;24.952;2023-05-02T14:36:59;0.80;;;0.80;;
33553;SDS011;19885;42.208;24.952;2023-05-02T14:39:24;1.63;;;0.95;;
33553;SDS011;19885;42.208;24.952;2023-05-02T14:41:51;3.70;;;0.95;;
33553;SDS011;19885;42.208;24.952;2023-05-02T14:44:16;4.47;;;1.17;;
33553;SDS011;19885;42.208;24.952;2023-05-02T14:46:42;1.25;;;1.00;;
33553;SDS011;19885;42.208;24.952;2023-05-02T14:49:07;0.90;;;0.90;;
33553;SDS011;19885;42.208;24.952;2023-05-02T14:51:35;1.83;;;1.00;;
33553;SDS011;19885;42.208;24.952;2023-05-02T14:54:04;3.63;;;1.10;;
33553;SDS011;19885;42.208;24.952;2023-05-02T14:56:31;0.80;;;0.80;;
33553;SDS011;19885;42.208;24.952;2023-05-02T14:58:57;4.28;;;1.27;;
33553;SDS011;19885;42.208;24.952;2023-05-02T15:01:23;3.28;;;1.25;;
